createdAt,value
2023-05-05T00:00:27.461Z,5.70
2023-05-05T00:01:29.872Z,7.28
2023-05-05T00:02:32.523Z,6.28
2023-05-05T00:03:37.764Z,6.53
2023-05-05T00:04:40.146Z,5.40
2023-05-05T00:05:42.426Z,6.55
2023-05-05T00:06:44.792Z,6.38
2023-05-05T00:07:47.101Z,6.43
2023-05-05T00:08:49.464Z,6.22
2023-05-05T00:09:51.697Z,5.95
2023-05-05T00:10:54.310Z,5.50
2023-05-05T00:11:56.770Z,6.32
2023-05-05T00:12:59.105Z,6.82
2023-05-05T00:14:01.568Z,6.05
2023-05-05T00:15:04.198Z,5.95
2023-05-05T00:16:06.705Z,6.32
2023-05-05T00:17:09.087Z,6.13
2023-05-05T00:18:12.528Z,6.28
2023-05-05T00:19:14.835Z,5.38
2023-05-05T00:20:17.644Z,6.03
2023-05-05T00:21:19.997Z,5.50
2023-05-05T00:22:22.262Z,5.65
2023-05-05T00:23:24.646Z,6.35
2023-05-05T00:24:26.891Z,5.88
2023-05-05T00:25:29.572Z,6.30
2023-05-05T00:26:31.877Z,5.90
2023-05-05T00:27:34.549Z,6.25
2023-05-05T00:28:36.815Z,5.93
2023-05-05T00:29:39.136Z,5.60
2023-05-05T00:30:41.631Z,5.50
2023-05-05T00:31:45.348Z,6.03
2023-05-05T00:32:49.165Z,6.20
2023-05-05T00:33:51.641Z,5.45
2023-05-05T00:34:53.991Z,5.80
2023-05-05T00:35:56.239Z,5.97
2023-05-05T00:36:58.641Z,6.07
2023-05-05T00:38:01.024Z,6.63
2023-05-05T00:39:03.983Z,5.97
2023-05-05T00:40:07.554Z,6.20
2023-05-05T00:41:10.091Z,6.80
2023-05-05T00:42:12.335Z,6.10
2023-05-05T00:43:14.819Z,5.65
2023-05-05T00:44:17.143Z,6.65
2023-05-05T00:45:20.522Z,6.40
2023-05-05T00:46:27.519Z,6.38
2023-05-05T00:47:29.916Z,6.18
2023-05-05T00:48:33.266Z,6.30
2023-05-05T00:49:36.205Z,6.43
2023-05-05T00:50:38.834Z,5.95
2023-05-05T00:51:41.299Z,6.45
2023-05-05T00:52:43.656Z,6.25
2023-05-05T00:53:46.782Z,6.18
2023-05-05T00:54:49.219Z,5.90
2023-05-05T00:55:52.134Z,7.07
2023-05-05T00:56:54.575Z,5.88
2023-05-05T00:58:01.737Z,6.03
2023-05-05T00:59:04.399Z,5.88
2023-05-05T01:00:09.902Z,5.85
2023-05-05T01:01:12.578Z,5.78
2023-05-05T01:02:14.953Z,5.95
2023-05-05T01:03:17.485Z,6.57
2023-05-05T01:04:19.807Z,6.00
2023-05-05T01:05:23.514Z,6.40
2023-05-05T01:06:53.964Z,6.43
2023-05-05T01:07:59.105Z,6.38
2023-05-05T01:09:39.034Z,6.32
2023-05-05T01:10:46.700Z,5.95
2023-05-05T01:12:05.139Z,6.45
2023-05-05T01:13:32.299Z,6.20
2023-05-05T01:14:40.306Z,6.03
2023-05-05T01:15:54.324Z,6.30
2023-05-05T01:17:00.019Z,5.78
2023-05-05T01:18:13.967Z,6.53
2023-05-05T01:19:53.304Z,5.78
2023-05-05T01:21:16.015Z,6.50
2023-05-05T01:22:22.922Z,5.82
2023-05-05T01:23:54.487Z,6.38
2023-05-05T01:25:11.486Z,6.03
2023-05-05T01:26:58.279Z,6.65
2023-05-05T01:28:17.254Z,7.15
2023-05-05T01:29:48.507Z,6.55
2023-05-05T01:31:11.939Z,6.55
2023-05-05T01:32:16.244Z,6.43
2023-05-05T01:33:24.516Z,6.10
2023-05-05T01:34:33.390Z,7.70
2023-05-05T01:35:43.793Z,6.15
2023-05-05T01:36:55.393Z,6.40
2023-05-05T01:38:17.116Z,6.80
2023-05-05T01:39:20.906Z,6.25
2023-05-05T01:40:27.888Z,6.20
2023-05-05T01:41:38.065Z,6.13
2023-05-05T01:42:43.593Z,5.88
2023-05-05T01:43:50.282Z,6.00
2023-05-05T01:44:54.134Z,6.82
2023-05-05T01:45:59.384Z,5.50
2023-05-05T01:47:02.630Z,7.25
2023-05-05T01:48:06.816Z,7.28
2023-05-05T01:49:11.661Z,6.80
2023-05-05T01:50:16.117Z,6.28
2023-05-05T01:51:22.970Z,5.75
2023-05-05T01:52:27.966Z,7.60
2023-05-05T01:53:32.587Z,6.90
2023-05-05T01:54:35.227Z,6.70
2023-05-05T01:55:39.318Z,6.55
2023-05-05T01:56:43.095Z,7.10
2023-05-05T01:57:47.254Z,6.35
2023-05-05T01:58:50.682Z,5.97
2023-05-05T01:59:54.635Z,6.43
2023-05-05T02:00:58.769Z,6.50
2023-05-05T02:02:02.901Z,6.63
2023-05-05T02:03:08.020Z,6.72
2023-05-05T02:04:11.726Z,6.13
2023-05-05T02:05:16.562Z,6.18
2023-05-05T02:06:21.976Z,6.28
2023-05-05T02:07:25.504Z,6.35
2023-05-05T02:08:30.008Z,6.00
2023-05-05T02:09:32.946Z,6.05
2023-05-05T02:10:36.362Z,6.60
2023-05-05T02:11:39.486Z,7.60
2023-05-05T02:12:44.800Z,6.30
2023-05-05T02:13:48.974Z,5.93
2023-05-05T02:14:53.274Z,7.10
2023-05-05T02:15:57.127Z,6.93
2023-05-05T02:17:01.583Z,6.40
2023-05-05T02:18:06.602Z,7.35
2023-05-05T02:19:09.269Z,6.40
2023-05-05T02:20:14.031Z,7.13
2023-05-05T02:21:18.170Z,6.47
2023-05-05T02:22:20.594Z,6.40
2023-05-05T02:23:22.863Z,6.05
2023-05-05T02:24:26.431Z,6.00
2023-05-05T02:25:55.150Z,5.95
2023-05-05T02:26:59.708Z,6.93
2023-05-05T02:28:03.732Z,6.20
2023-05-05T02:29:10.507Z,7.78
2023-05-05T02:30:16.790Z,6.75
2023-05-05T02:31:23.501Z,7.05
2023-05-05T02:32:39.325Z,7.88
2023-05-05T02:33:44.514Z,8.77
2023-05-05T02:34:49.476Z,6.97
2023-05-05T02:35:54.733Z,7.10
2023-05-05T02:37:03.054Z,6.50
2023-05-05T02:38:17.457Z,7.43
2023-05-05T02:39:30.741Z,7.28
2023-05-05T02:40:35.564Z,7.28
2023-05-05T02:41:41.361Z,7.07
2023-05-05T02:42:54.434Z,7.55
2023-05-05T02:44:02.400Z,7.88
2023-05-05T02:45:13.126Z,6.50
2023-05-05T02:46:18.174Z,7.45
2023-05-05T02:47:22.477Z,7.28
2023-05-05T02:48:27.086Z,7.55
2023-05-05T02:49:30.058Z,7.50
2023-05-05T02:50:35.456Z,7.78
2023-05-05T02:51:47.782Z,7.20
2023-05-05T02:52:57.917Z,7.18
2023-05-05T02:54:01.063Z,8.93
2023-05-05T02:55:04.636Z,7.20
2023-05-05T02:56:34.424Z,7.28
2023-05-05T02:57:42.512Z,7.15
2023-05-05T02:58:52.987Z,7.38
2023-05-05T03:00:06.987Z,6.88
2023-05-05T03:01:25.837Z,7.35
2023-05-05T03:02:35.768Z,7.80
2023-05-05T03:03:44.628Z,6.85
2023-05-05T03:04:54.681Z,6.75
2023-05-05T03:06:18.191Z,7.40
2023-05-05T03:07:28.893Z,8.02
2023-05-05T03:09:06.346Z,8.00
2023-05-05T03:10:12.225Z,7.70
2023-05-05T03:11:40.648Z,7.53
2023-05-05T03:12:49.467Z,7.78
2023-05-05T03:14:07.686Z,7.75
2023-05-05T03:15:10.908Z,7.78
2023-05-05T03:16:15.489Z,7.80
2023-05-05T03:17:19.705Z,7.90
2023-05-05T03:18:24.348Z,7.70
2023-05-05T03:19:35.394Z,8.10
2023-05-05T03:20:40.592Z,8.25
2023-05-05T03:21:45.421Z,7.78
2023-05-05T03:22:48.338Z,7.38
2023-05-05T03:23:51.686Z,7.28
2023-05-05T03:24:56.208Z,7.90
2023-05-05T03:25:59.854Z,7.07
2023-05-05T03:27:06.974Z,7.00
2023-05-05T03:28:14.390Z,8.63
2023-05-05T03:29:17.305Z,8.55
2023-05-05T03:30:20.334Z,9.90
2023-05-05T03:31:25.693Z,7.78
2023-05-05T03:32:31.925Z,8.75
2023-05-05T03:33:34.257Z,9.35
2023-05-05T03:34:37.837Z,8.10
2023-05-05T03:35:41.247Z,8.30
2023-05-05T03:36:45.833Z,8.68
2023-05-05T03:37:50.547Z,8.05
2023-05-05T03:38:53.889Z,7.47
2023-05-05T03:39:57.286Z,7.57
2023-05-05T03:41:05.796Z,7.72
2023-05-05T03:42:08.676Z,8.80
2023-05-05T03:43:11.811Z,7.95
2023-05-05T03:44:14.319Z,9.02
2023-05-05T03:45:17.106Z,6.80
2023-05-05T03:46:19.981Z,7.90
2023-05-05T03:47:24.691Z,8.60
2023-05-05T03:48:28.196Z,7.13
2023-05-05T03:49:30.615Z,7.80
2023-05-05T03:50:33.349Z,8.93
2023-05-05T03:51:36.653Z,9.90
2023-05-05T03:52:39.084Z,8.90
2023-05-05T03:53:41.580Z,7.78
2023-05-05T03:54:46.196Z,8.02
2023-05-05T03:55:48.757Z,7.50
2023-05-05T03:56:51.022Z,8.50
2023-05-05T03:57:53.280Z,8.30
2023-05-05T03:58:55.798Z,8.52
2023-05-05T03:59:58.172Z,8.25
2023-05-05T04:01:00.522Z,8.30
2023-05-05T04:02:02.860Z,8.55
2023-05-05T04:03:05.371Z,8.75
2023-05-05T04:04:09.450Z,7.93
2023-05-05T04:05:11.872Z,7.45
2023-05-05T04:06:14.168Z,7.38
2023-05-05T04:07:16.627Z,8.23
2023-05-05T04:08:19.310Z,7.93
2023-05-05T04:09:21.627Z,8.93
2023-05-05T04:10:24.019Z,9.25
2023-05-05T04:11:26.423Z,8.57
2023-05-05T04:12:29.627Z,8.02
2023-05-05T04:13:32.585Z,7.65
2023-05-05T04:14:35.280Z,7.20
2023-05-05T04:15:37.636Z,7.65
2023-05-05T04:16:40.442Z,8.15
2023-05-05T04:17:42.925Z,7.57
2023-05-05T04:18:45.347Z,8.23
2023-05-05T04:19:47.726Z,8.27
2023-05-05T04:20:50.261Z,8.50
2023-05-05T04:21:53.037Z,7.70
2023-05-05T04:22:55.526Z,8.10
2023-05-05T04:23:58.852Z,7.43
2023-05-05T04:25:01.383Z,8.43
2023-05-05T04:26:04.085Z,8.55
2023-05-05T04:27:06.637Z,8.40
2023-05-05T04:28:09.654Z,8.65
2023-05-05T04:29:12.237Z,8.05
2023-05-05T04:30:15.063Z,8.40
2023-05-05T04:31:17.366Z,8.27
2023-05-05T04:32:20.482Z,7.80
2023-05-05T04:33:23.068Z,8.80
2023-05-05T04:34:25.912Z,8.15
2023-05-05T04:35:28.253Z,8.13
2023-05-05T04:36:30.562Z,8.07
2023-05-05T04:37:32.911Z,8.45
2023-05-05T04:38:35.479Z,8.60
2023-05-05T04:39:38.518Z,8.70
2023-05-05T04:40:41.380Z,7.22
2023-05-05T04:41:44.862Z,7.70
2023-05-05T04:42:47.297Z,8.88
2023-05-05T04:43:49.634Z,7.78
2023-05-05T04:44:51.913Z,8.90
2023-05-05T04:45:55.444Z,8.02
2023-05-05T04:47:01.541Z,8.45
2023-05-05T04:48:05.336Z,8.13
2023-05-05T04:49:09.197Z,8.60
2023-05-05T04:50:11.694Z,8.30
2023-05-05T04:51:14.603Z,8.48
2023-05-05T04:52:16.918Z,8.43
2023-05-05T04:53:19.212Z,9.38
2023-05-05T04:54:22.094Z,7.80
2023-05-05T04:55:24.397Z,8.43
2023-05-05T04:56:27.431Z,9.90
2023-05-05T04:57:30.723Z,8.60
2023-05-05T04:58:33.144Z,8.30
2023-05-05T04:59:35.538Z,9.57
2023-05-05T05:00:38.148Z,8.50
2023-05-05T05:01:41.225Z,9.00
2023-05-05T05:02:43.691Z,7.95
2023-05-05T05:03:46.292Z,8.93
2023-05-05T05:04:48.972Z,8.40
2023-05-05T05:05:51.963Z,9.15
2023-05-05T05:06:55.352Z,7.50
2023-05-05T05:07:59.217Z,7.80
2023-05-05T05:09:01.931Z,8.80
2023-05-05T05:10:05.229Z,7.70
2023-05-05T05:11:07.710Z,8.05
2023-05-05T05:12:09.992Z,8.18
2023-05-05T05:13:13.091Z,13.90
2023-05-05T05:14:15.607Z,11.23
2023-05-05T05:15:17.932Z,8.88
2023-05-05T05:16:20.283Z,10.35
2023-05-05T05:17:23.938Z,10.27
2023-05-05T05:18:26.985Z,9.32
2023-05-05T05:19:29.766Z,8.60
2023-05-05T05:20:32.247Z,9.02
2023-05-05T05:21:34.565Z,9.45
2023-05-05T05:22:38.793Z,9.13
2023-05-05T05:23:44.235Z,7.93
2023-05-05T05:24:47.213Z,8.98
2023-05-05T05:25:49.950Z,8.23
2023-05-05T05:26:54.464Z,8.25
2023-05-05T05:28:08.792Z,8.65
2023-05-05T05:29:13.165Z,8.20
2023-05-05T05:30:16.099Z,8.73
2023-05-05T05:31:18.557Z,8.15
2023-05-05T05:32:21.011Z,8.82
2023-05-05T05:33:24.594Z,8.98
2023-05-05T05:34:27.916Z,9.02
2023-05-05T05:35:31.581Z,8.90
2023-05-05T05:36:34.302Z,9.73
2023-05-05T05:37:36.811Z,9.20
2023-05-05T05:38:39.388Z,8.13
2023-05-05T05:39:43.504Z,9.38
2023-05-05T05:40:46.728Z,8.90
2023-05-05T05:41:49.491Z,8.63
2023-05-05T05:42:51.925Z,8.90
2023-05-05T05:43:54.236Z,10.10
2023-05-05T05:44:58.715Z,8.18
2023-05-05T05:46:01.404Z,9.13
2023-05-05T05:47:04.591Z,8.98
2023-05-05T05:48:06.939Z,8.75
2023-05-05T05:49:09.267Z,8.90
2023-05-05T05:50:11.916Z,9.45
2023-05-05T05:51:14.313Z,8.32
2023-05-05T05:52:17.063Z,9.07
2023-05-05T05:53:19.741Z,9.13
2023-05-05T05:54:22.048Z,8.45
2023-05-05T05:55:24.417Z,8.80
2023-05-05T05:56:27.578Z,8.32
2023-05-05T05:57:30.167Z,8.30
2023-05-05T05:58:32.432Z,8.95
2023-05-05T05:59:34.795Z,9.55
2023-05-05T06:00:37.311Z,9.18
2023-05-05T06:01:43.471Z,9.13
2023-05-05T06:02:46.011Z,9.38
2023-05-05T06:04:06.001Z,9.18
2023-05-05T06:05:09.198Z,8.70
2023-05-05T06:06:11.597Z,8.88
2023-05-05T06:07:14.102Z,9.13
2023-05-05T06:08:16.557Z,9.20
2023-05-05T06:09:23.595Z,9.90
2023-05-05T06:10:28.577Z,10.02
2023-05-05T06:11:37.421Z,9.15
2023-05-05T06:12:39.835Z,8.40
2023-05-05T06:13:42.203Z,8.60
2023-05-05T06:14:44.588Z,9.55
2023-05-05T06:15:46.918Z,9.18
2023-05-05T06:16:50.675Z,9.60
2023-05-05T06:17:55.399Z,8.63
2023-05-05T06:18:58.328Z,9.60
2023-05-05T06:20:00.721Z,9.57
2023-05-05T06:21:03.176Z,9.40
2023-05-05T06:22:06.653Z,10.18
2023-05-05T06:23:09.788Z,9.43
2023-05-05T06:24:16.287Z,8.68
2023-05-05T06:25:18.661Z,9.20
2023-05-05T06:26:21.587Z,8.98
2023-05-05T06:27:24.088Z,9.50
2023-05-05T06:28:26.709Z,9.60
2023-05-05T06:29:29.050Z,9.13
2023-05-05T06:30:31.383Z,8.57
2023-05-05T06:31:33.709Z,7.82
2023-05-05T06:32:36.996Z,8.93
2023-05-05T06:33:39.260Z,9.38
2023-05-05T06:34:42.834Z,8.27
2023-05-05T06:35:50.293Z,9.18
2023-05-05T06:36:55.383Z,8.38
2023-05-05T06:37:57.909Z,9.65
2023-05-05T06:39:00.242Z,9.05
2023-05-05T06:40:03.543Z,9.15
2023-05-05T06:41:05.803Z,9.48
2023-05-05T06:42:08.129Z,8.40
2023-05-05T06:43:10.404Z,9.07
2023-05-05T06:44:17.429Z,8.57
2023-05-05T06:45:19.972Z,9.15
2023-05-05T06:46:22.395Z,10.82
2023-05-05T06:47:25.326Z,9.43
2023-05-05T06:48:27.619Z,9.10
2023-05-05T06:49:30.384Z,9.73
2023-05-05T06:50:32.904Z,9.48
2023-05-05T06:51:35.597Z,8.93
2023-05-05T06:52:37.905Z,10.43
2023-05-05T06:53:40.304Z,8.88
2023-05-05T06:54:43.890Z,8.55
2023-05-05T06:55:47.459Z,8.52
2023-05-05T06:56:49.790Z,9.68
2023-05-05T06:57:53.369Z,9.20
2023-05-05T06:58:55.863Z,8.68
2023-05-05T06:59:59.981Z,8.43
2023-05-05T07:01:02.245Z,8.73
2023-05-05T07:02:04.601Z,9.45
2023-05-05T07:03:06.968Z,8.82
2023-05-05T07:04:09.285Z,8.55
2023-05-05T07:05:11.858Z,9.43
2023-05-05T07:06:14.202Z,9.93
2023-05-05T07:07:16.968Z,8.90
2023-05-05T07:08:19.231Z,8.55
2023-05-05T07:09:21.678Z,9.80
2023-05-05T07:10:24.995Z,9.60
2023-05-05T07:11:27.245Z,8.32
2023-05-05T07:12:32.995Z,9.75
2023-05-05T07:13:35.328Z,8.43
2023-05-05T07:14:37.693Z,10.05
2023-05-05T07:15:46.456Z,8.48
2023-05-05T07:16:49.160Z,9.57
2023-05-05T07:17:51.502Z,9.10
2023-05-05T07:18:53.923Z,9.18
2023-05-05T07:19:56.264Z,8.75
2023-05-05T07:20:58.728Z,9.30
2023-05-05T07:22:01.145Z,9.93
2023-05-05T07:23:03.531Z,8.60
2023-05-05T07:24:06.460Z,9.95
2023-05-05T07:25:09.402Z,9.48
2023-05-05T07:26:12.041Z,9.07
2023-05-05T07:27:14.427Z,9.20
2023-05-05T07:28:17.202Z,9.05
2023-05-05T07:29:19.496Z,9.80
2023-05-05T07:30:22.174Z,8.75
2023-05-05T07:31:27.052Z,9.50
2023-05-05T07:32:29.582Z,9.13
2023-05-05T07:33:31.996Z,8.23
2023-05-05T07:34:34.753Z,8.50
2023-05-05T07:35:37.244Z,7.90
2023-05-05T07:36:40.032Z,8.90
2023-05-05T07:37:42.611Z,8.82
2023-05-05T07:38:45.099Z,8.95
2023-05-05T07:39:48.773Z,8.93
2023-05-05T07:40:51.496Z,9.68
2023-05-05T07:41:53.894Z,8.07
2023-05-05T07:42:56.245Z,9.00
2023-05-05T07:43:58.644Z,8.57
2023-05-05T07:45:01.028Z,9.13
2023-05-05T07:46:03.764Z,8.50
2023-05-05T07:47:06.336Z,9.02
2023-05-05T07:48:08.743Z,9.02
2023-05-05T07:49:11.089Z,9.35
2023-05-05T07:50:13.600Z,7.75
2023-05-05T07:51:17.007Z,8.93
2023-05-05T07:52:21.512Z,9.40
2023-05-05T07:53:29.795Z,9.30
2023-05-05T07:54:32.317Z,8.88
2023-05-05T07:55:34.593Z,8.70
2023-05-05T07:56:36.965Z,9.50
2023-05-05T07:57:39.772Z,9.55
2023-05-05T07:58:42.311Z,8.20
2023-05-05T07:59:44.877Z,8.68
2023-05-05T08:00:47.972Z,10.38
2023-05-05T08:01:50.227Z,9.32
2023-05-05T08:02:52.673Z,7.75
2023-05-05T08:03:55.068Z,9.27
2023-05-05T08:04:57.492Z,8.10
2023-05-05T08:06:07.731Z,8.93
2023-05-05T08:07:10.602Z,8.30
2023-05-05T08:08:13.105Z,8.43
2023-05-05T08:09:15.544Z,7.28
2023-05-05T08:10:17.854Z,8.25
2023-05-05T08:11:21.829Z,8.27
2023-05-05T08:12:24.268Z,9.32
2023-05-05T08:13:26.828Z,9.70
2023-05-05T08:14:29.874Z,8.18
2023-05-05T08:15:32.992Z,10.02
2023-05-05T08:16:35.634Z,9.60
2023-05-05T08:18:04.186Z,9.75
2023-05-05T08:19:14.547Z,8.32
2023-05-05T08:20:28.707Z,9.25
2023-05-05T08:21:31.791Z,8.40
2023-05-05T08:22:34.181Z,9.43
2023-05-05T08:23:37.347Z,8.15
2023-05-05T08:24:39.601Z,7.35
2023-05-05T08:25:41.973Z,7.80
2023-05-05T08:26:44.561Z,8.80
2023-05-05T08:27:46.852Z,7.97
2023-05-05T08:28:49.329Z,7.53
2023-05-05T08:29:51.557Z,7.60
2023-05-05T08:30:53.910Z,7.90
2023-05-05T08:31:56.371Z,7.20
2023-05-05T08:32:59.434Z,7.50
2023-05-05T08:34:02.664Z,7.30
2023-05-05T08:35:06.079Z,8.20
2023-05-05T08:36:08.962Z,8.40
2023-05-05T08:37:11.434Z,7.30
2023-05-05T08:38:14.271Z,8.50
2023-05-05T08:39:16.758Z,7.65
2023-05-05T08:40:25.147Z,7.25
2023-05-05T08:41:28.843Z,6.90
2023-05-05T08:42:37.825Z,7.50
2023-05-05T08:43:46.310Z,6.82
2023-05-05T08:44:48.752Z,7.90
2023-05-05T08:45:51.842Z,6.70
2023-05-05T08:46:54.974Z,6.95
2023-05-05T08:48:02.385Z,7.53
2023-05-05T08:49:05.812Z,8.15
2023-05-05T08:50:11.037Z,7.60
2023-05-05T08:51:20.261Z,8.35
2023-05-05T08:52:24.209Z,7.35
2023-05-05T08:53:55.890Z,7.80
2023-05-05T08:55:06.886Z,7.25
2023-05-05T08:56:10.781Z,7.25
2023-05-05T08:57:19.741Z,7.43
2023-05-05T08:58:23.668Z,8.20
2023-05-05T08:59:30.175Z,7.90
2023-05-05T09:00:33.750Z,7.00
2023-05-05T09:01:37.239Z,7.85
2023-05-05T09:02:40.580Z,7.00
2023-05-05T09:03:44.632Z,6.50
2023-05-05T09:04:46.913Z,7.40
2023-05-05T09:05:51.152Z,7.83
2023-05-05T09:06:54.085Z,7.85
2023-05-05T09:07:56.413Z,7.93
2023-05-05T09:08:59.747Z,8.35
2023-05-05T09:10:05.491Z,7.93
2023-05-05T09:11:07.827Z,6.35
2023-05-05T09:12:10.185Z,7.32
2023-05-05T09:13:13.296Z,7.25
2023-05-05T09:14:15.958Z,8.35
2023-05-05T09:15:18.377Z,7.03
2023-05-05T09:16:20.781Z,7.05
2023-05-05T09:17:25.340Z,7.70
2023-05-05T09:18:28.034Z,7.50
2023-05-05T09:19:30.389Z,6.63
2023-05-05T09:20:37.570Z,6.65
2023-05-05T09:21:48.757Z,6.40
2023-05-05T09:22:51.163Z,7.00
2023-05-05T09:24:08.469Z,7.10
2023-05-05T09:25:16.697Z,7.30
2023-05-05T09:26:18.988Z,6.50
2023-05-05T09:27:23.290Z,7.20
2023-05-05T09:28:26.993Z,8.18
2023-05-05T09:29:29.650Z,7.32
2023-05-05T09:30:32.020Z,8.07
2023-05-05T09:31:36.303Z,6.82
2023-05-05T09:32:49.805Z,7.50
2023-05-05T09:33:52.146Z,7.15
2023-05-05T09:35:01.426Z,7.60
2023-05-05T09:36:03.901Z,7.15
2023-05-05T09:37:06.535Z,7.22
2023-05-05T09:38:12.406Z,7.20
2023-05-05T09:39:19.642Z,6.95
2023-05-05T09:40:22.494Z,7.00
2023-05-05T09:41:42.515Z,7.95
2023-05-05T09:42:45.116Z,6.72
2023-05-05T09:43:52.456Z,7.40
2023-05-05T09:44:55.715Z,6.83
2023-05-05T09:46:08.655Z,6.88
2023-05-05T09:47:26.068Z,7.45
2023-05-05T09:48:32.265Z,6.97
2023-05-05T09:49:36.342Z,6.35
2023-05-05T09:50:43.959Z,7.40
2023-05-05T09:51:47.658Z,8.00
2023-05-05T09:53:00.891Z,7.38
2023-05-05T09:54:03.379Z,6.72
2023-05-05T09:55:06.706Z,7.37
2023-05-05T09:56:09.068Z,6.87
2023-05-05T09:57:33.487Z,6.03
2023-05-05T09:58:36.200Z,7.10
2023-05-05T09:59:39.125Z,6.93
2023-05-05T10:00:41.738Z,6.27
2023-05-05T10:01:44.265Z,7.20
2023-05-05T10:02:46.840Z,7.13
2023-05-05T10:03:54.974Z,6.93
2023-05-05T10:05:11.448Z,7.43
2023-05-05T10:06:13.772Z,7.18
2023-05-05T10:07:25.163Z,5.53
2023-05-05T10:08:30.651Z,6.60
2023-05-05T10:09:33.182Z,6.38
2023-05-05T10:10:35.575Z,6.60
2023-05-05T10:11:39.457Z,6.78
2023-05-05T10:12:42.284Z,6.83
2023-05-05T10:13:44.663Z,6.70
2023-05-05T10:14:46.976Z,6.32
2023-05-05T10:15:51.528Z,6.07
2023-05-05T10:16:56.272Z,6.60
2023-05-05T10:18:07.824Z,6.63
2023-05-05T10:19:14.345Z,6.10
2023-05-05T10:20:18.711Z,6.80
2023-05-05T10:21:21.789Z,6.82
2023-05-05T10:22:25.192Z,6.55
2023-05-05T10:23:47.957Z,5.80
2023-05-05T10:25:01.362Z,6.20
2023-05-05T10:26:07.093Z,5.78
2023-05-05T10:27:29.065Z,6.60
2023-05-05T10:28:42.165Z,6.03
2023-05-05T10:29:59.830Z,6.32
2023-05-05T10:31:12.878Z,6.60
2023-05-05T10:32:51.928Z,6.63
2023-05-05T10:33:58.150Z,6.03
2023-05-05T10:35:02.983Z,6.25
2023-05-05T10:36:07.734Z,5.70
2023-05-05T10:37:11.603Z,5.38
2023-05-05T10:38:14.651Z,5.90
2023-05-05T10:39:19.976Z,5.57
2023-05-05T10:40:22.763Z,5.57
2023-05-05T10:41:26.763Z,6.20
2023-05-05T10:42:29.331Z,6.18
2023-05-05T10:43:32.134Z,5.53
2023-05-05T10:44:34.842Z,5.30
2023-05-05T10:45:38.249Z,5.18
2023-05-05T10:46:41.489Z,5.43
2023-05-05T10:47:47.071Z,5.43
2023-05-05T10:49:26.896Z,6.07
2023-05-05T10:50:38.829Z,6.17
2023-05-05T10:51:52.921Z,5.43
2023-05-05T10:53:21.997Z,5.50
2023-05-05T10:54:51.234Z,5.60
2023-05-05T10:56:08.677Z,5.10
2023-05-05T10:57:12.053Z,5.40
2023-05-05T10:58:43.664Z,5.87
2023-05-05T10:59:54.177Z,5.30
2023-05-05T11:00:56.508Z,5.43
2023-05-05T11:01:58.861Z,6.10
2023-05-05T11:03:16.630Z,5.67
2023-05-05T11:04:23.302Z,5.50
2023-05-05T11:05:25.627Z,5.27
2023-05-05T11:06:28.714Z,5.10
2023-05-05T11:07:31.317Z,5.23
2023-05-05T11:08:35.493Z,4.87
2023-05-05T11:09:54.786Z,4.63
2023-05-05T11:10:57.305Z,5.13
2023-05-05T11:12:04.436Z,4.30
2023-05-05T11:13:09.715Z,5.37
2023-05-05T11:14:22.525Z,4.23
2023-05-05T11:15:27.661Z,4.90
2023-05-05T11:16:48.226Z,5.10
2023-05-05T11:17:50.865Z,4.40
2023-05-05T11:18:53.163Z,4.73
2023-05-05T11:19:56.011Z,4.70
2023-05-05T11:20:58.212Z,4.20
2023-05-05T11:22:01.942Z,4.70
2023-05-05T11:23:04.648Z,4.78
2023-05-05T11:24:31.528Z,4.70
2023-05-05T11:25:37.055Z,4.20
2023-05-05T11:26:51.496Z,4.67
2023-05-05T11:28:12.047Z,4.80
2023-05-05T11:29:14.565Z,4.57
2023-05-05T11:30:17.740Z,4.80
2023-05-05T11:31:20.212Z,4.40
2023-05-05T11:32:22.970Z,4.80
2023-05-05T11:33:30.621Z,4.68
2023-05-05T11:34:32.930Z,5.50
2023-05-05T11:35:54.318Z,4.90
2023-05-05T11:37:05.768Z,4.33
2023-05-05T11:38:09.131Z,4.63
2023-05-05T11:39:32.994Z,4.90
2023-05-05T11:40:37.417Z,4.03
2023-05-05T11:42:09.364Z,4.20
2023-05-05T11:43:12.921Z,4.30
2023-05-05T11:44:19.952Z,4.65
2023-05-05T11:45:24.634Z,4.10
2023-05-05T11:46:27.038Z,4.70
2023-05-05T11:47:31.065Z,4.67
2023-05-05T11:48:47.175Z,5.13
2023-05-05T11:49:49.918Z,4.83
2023-05-05T11:50:52.499Z,4.10
2023-05-05T11:52:03.323Z,4.77
2023-05-05T11:53:07.216Z,4.50
2023-05-05T11:54:11.755Z,4.40
2023-05-05T11:55:20.999Z,3.90
2023-05-05T11:56:23.379Z,3.77
2023-05-05T11:57:30.037Z,4.37
2023-05-05T11:58:32.342Z,4.77
2023-05-05T11:59:37.665Z,5.60
2023-05-05T12:00:40.009Z,4.80
2023-05-05T12:01:42.611Z,4.53
2023-05-05T12:02:45.039Z,4.07
2023-05-05T12:03:47.634Z,4.93
2023-05-05T12:04:50.959Z,4.57
2023-05-05T12:05:56.363Z,3.50
2023-05-05T12:07:01.832Z,4.93
2023-05-05T12:08:04.411Z,4.33
2023-05-05T12:09:14.482Z,4.60
2023-05-05T12:10:23.252Z,4.67
2023-05-05T12:11:25.984Z,5.10
2023-05-05T12:12:39.482Z,4.70
2023-05-05T12:13:42.184Z,4.90
2023-05-05T12:14:52.766Z,5.10
2023-05-05T12:15:55.130Z,4.30
2023-05-05T12:16:58.745Z,4.67
2023-05-05T12:18:03.016Z,5.40
2023-05-05T12:19:07.451Z,4.60
2023-05-05T12:20:11.155Z,4.60
2023-05-05T12:21:17.709Z,4.80
2023-05-05T12:22:25.405Z,4.40
2023-05-05T12:23:30.161Z,4.20
2023-05-05T12:24:32.835Z,4.27
2023-05-05T12:25:36.914Z,5.20
2023-05-05T12:26:39.438Z,4.80
2023-05-05T12:27:51.983Z,4.17
2023-05-05T12:28:54.770Z,4.13
2023-05-05T12:30:10.521Z,4.13
2023-05-05T12:31:13.092Z,4.13
2023-05-05T12:32:20.065Z,4.13
2023-05-05T12:33:22.523Z,4.10
2023-05-05T12:34:25.026Z,4.00
2023-05-05T12:35:27.508Z,4.93
2023-05-05T12:36:30.878Z,4.90
2023-05-05T12:37:33.345Z,5.20
2023-05-05T12:38:36.503Z,3.60
2023-05-05T12:39:39.237Z,4.90
2023-05-05T12:40:50.196Z,4.30
2023-05-05T12:42:02.270Z,4.53
2023-05-05T12:43:04.549Z,3.97
2023-05-05T12:44:06.927Z,4.50
2023-05-05T12:45:17.636Z,3.80
2023-05-05T12:46:20.114Z,4.90
2023-05-05T12:47:32.853Z,4.70
2023-05-05T12:48:38.119Z,4.80
2023-05-05T12:49:51.678Z,4.53
2023-05-05T12:50:54.155Z,4.43
2023-05-05T12:51:57.290Z,4.70
2023-05-05T12:52:59.600Z,4.90
2023-05-05T12:54:05.849Z,5.17
2023-05-05T12:55:09.038Z,4.73
2023-05-05T12:56:31.039Z,4.20
2023-05-05T12:57:33.377Z,4.70
2023-05-05T12:58:52.221Z,4.50
2023-05-05T12:59:54.581Z,5.32
2023-05-05T13:01:10.352Z,4.90
2023-05-05T13:02:12.763Z,4.83
2023-05-05T13:03:21.271Z,4.20
2023-05-05T13:04:28.088Z,5.63
2023-05-05T13:05:36.586Z,4.17
2023-05-05T13:06:46.657Z,4.90
2023-05-05T13:07:52.075Z,5.38
2023-05-05T13:08:57.721Z,4.40
2023-05-05T13:10:09.204Z,4.20
2023-05-05T13:11:12.225Z,4.00
2023-05-05T13:12:16.537Z,5.20
2023-05-05T13:13:18.926Z,4.80
2023-05-05T13:14:22.027Z,5.17
2023-05-05T13:15:25.374Z,4.50
2023-05-05T13:16:28.104Z,4.90
2023-05-05T13:17:31.104Z,4.20
2023-05-05T13:18:51.313Z,4.45
2023-05-05T13:19:53.597Z,4.80
2023-05-05T13:20:56.099Z,4.47
2023-05-05T13:21:59.076Z,4.07
2023-05-05T13:23:01.349Z,4.13
2023-05-05T13:25:09.403Z,4.70
2023-05-05T13:26:13.556Z,5.17
2023-05-05T13:27:16.455Z,5.13
2023-05-05T13:28:18.713Z,4.60
2023-05-05T13:29:21.134Z,4.50
2023-05-05T13:30:23.518Z,5.23
2023-05-05T13:31:25.906Z,4.47
2023-05-05T13:32:28.235Z,4.47
2023-05-05T13:33:33.487Z,3.93
2023-05-05T13:34:35.936Z,3.92
2023-05-05T13:35:38.250Z,4.93
2023-05-05T13:36:40.638Z,4.30
2023-05-05T13:37:44.326Z,5.10
2023-05-05T13:38:46.622Z,5.27
2023-05-05T13:39:48.855Z,4.78
2023-05-05T13:40:51.268Z,4.63
2023-05-05T13:41:53.922Z,3.83
2023-05-05T13:42:56.267Z,4.33
2023-05-05T13:43:58.574Z,3.43
2023-05-05T13:45:01.046Z,4.43
2023-05-05T13:46:18.615Z,4.90
2023-05-05T13:47:21.833Z,5.43
2023-05-05T13:48:24.301Z,4.20
2023-05-05T13:49:27.051Z,4.70
2023-05-05T13:50:29.396Z,4.00
2023-05-05T13:51:31.735Z,4.60
2023-05-05T15:52:22.758Z,4.00
2023-05-05T15:53:26.796Z,4.60
2023-05-05T15:54:29.159Z,4.20
2023-05-05T15:55:31.504Z,4.40
2023-05-05T15:56:33.938Z,4.77
2023-05-05T15:57:36.372Z,4.10
2023-05-05T15:58:38.746Z,4.60
2023-05-05T15:59:41.354Z,4.47
2023-05-05T16:00:43.684Z,4.60
2023-05-05T16:01:46.773Z,4.40
2023-05-05T16:02:49.632Z,4.90
2023-05-05T16:03:52.073Z,4.70
2023-05-05T16:04:54.930Z,4.10
2023-05-05T16:05:57.305Z,4.43
2023-05-05T16:06:59.758Z,3.97
2023-05-05T16:08:02.130Z,4.70
2023-05-05T16:09:04.571Z,4.03
2023-05-05T16:10:08.230Z,3.80
2023-05-05T16:11:10.580Z,4.23
2023-05-05T16:12:12.824Z,4.07
2023-05-05T16:13:15.293Z,4.67
2023-05-05T16:14:17.747Z,4.10
2023-05-05T16:15:20.318Z,4.33
2023-05-05T16:16:22.638Z,4.10
2023-05-05T16:17:25.079Z,4.30
2023-05-05T16:18:27.431Z,4.57
2023-05-05T16:19:31.125Z,4.43
2023-05-05T16:20:33.546Z,4.22
2023-05-05T16:21:35.831Z,4.73
2023-05-05T16:22:38.161Z,4.30
2023-05-05T16:23:40.606Z,3.95
2023-05-05T16:24:44.271Z,3.80
2023-05-05T16:25:47.166Z,4.93
2023-05-05T16:26:49.482Z,4.73
2023-05-05T16:27:53.192Z,4.77
2023-05-05T16:28:55.514Z,4.15
2023-05-05T16:29:59.625Z,6.93
2023-05-05T16:31:02.431Z,4.30